createdAt,value
2022-10-31T00:02:13.433Z,11.10
2022-10-31T00:07:15.444Z,10.75
2022-10-31T00:12:17.445Z,11.02
2022-10-31T00:17:19.476Z,11.07
2022-10-31T00:22:21.464Z,10.85
2022-10-31T00:27:23.491Z,11.07
2022-10-31T00:32:25.470Z,10.85
2022-10-31T00:37:27.833Z,11.27
2022-10-31T00:42:29.887Z,10.90
2022-10-31T00:47:33.818Z,11.07
2022-10-31T00:52:36.002Z,10.77
2022-10-31T00:57:38.340Z,11.07
2022-10-31T01:02:41.302Z,9.90
2022-10-31T01:07:43.608Z,11.18
2022-10-31T01:12:48.075Z,10.50
2022-10-31T01:17:50.668Z,10.90
2022-10-31T01:22:52.668Z,10.43
2022-10-31T01:27:54.657Z,10.85
2022-10-31T01:32:58.099Z,10.68
2022-10-31T01:38:00.383Z,10.30
2022-10-31T01:43:02.695Z,11.18
2022-10-31T01:48:05.249Z,11.00
2022-10-31T01:53:09.129Z,10.88
2022-10-31T01:58:21.114Z,10.98
2022-10-31T02:03:24.819Z,11.15
2022-10-31T02:08:32.190Z,11.38
2022-10-31T02:13:34.813Z,10.57
2022-10-31T02:18:37.002Z,11.18
2022-10-31T02:23:59.969Z,11.38
2022-10-31T02:29:28.295Z,11.68
2022-10-31T02:35:08.141Z,11.10
2022-10-31T02:40:35.854Z,11.98
2022-10-31T02:46:13.608Z,11.55
2022-10-31T02:51:17.430Z,11.30
2022-10-31T02:56:20.485Z,11.05
2022-10-31T03:01:28.611Z,10.55
2022-10-31T03:06:45.938Z,11.45
2022-10-31T03:11:59.358Z,11.75
2022-10-31T03:17:08.522Z,11.35
2022-10-31T03:22:23.739Z,11.02
2022-10-31T03:27:28.525Z,10.70
2022-10-31T03:32:37.478Z,11.65
2022-10-31T03:37:41.450Z,10.05
2022-10-31T03:42:55.169Z,11.32
2022-10-31T03:48:00.068Z,10.82
2022-10-31T03:53:09.717Z,11.38
2022-10-31T03:58:38.212Z,11.63
2022-10-31T04:03:42.005Z,10.70
2022-10-31T04:08:52.205Z,10.95
2022-10-31T04:13:56.617Z,10.93
2022-10-31T04:18:58.785Z,11.40
2022-10-31T04:24:01.920Z,11.45
2022-10-31T04:29:06.011Z,11.48
2022-10-31T04:34:08.377Z,11.50
2022-10-31T04:39:10.586Z,11.25
2022-10-31T04:44:17.699Z,11.25
2022-10-31T04:49:23.147Z,13.95
2022-10-31T04:54:25.362Z,12.20
2022-10-31T04:59:50.331Z,12.50
2022-10-31T05:04:52.566Z,12.00
2022-10-31T05:09:54.727Z,12.30
2022-10-31T05:14:56.779Z,12.45
2022-10-31T05:20:19.362Z,12.10
2022-10-31T05:25:53.761Z,11.45
2022-10-31T05:30:56.528Z,11.30
2022-10-31T05:35:58.745Z,12.75
2022-10-31T05:41:18.656Z,12.05
2022-10-31T05:46:22.884Z,11.85
2022-10-31T05:51:43.396Z,12.63
2022-10-31T05:56:45.831Z,12.55
2022-10-31T06:01:48.187Z,14.32
2022-10-31T06:07:05.971Z,12.77
2022-10-31T06:12:08.524Z,13.10
2022-10-31T06:17:29.029Z,13.18
2022-10-31T06:23:09.725Z,13.15
2022-10-31T06:28:11.982Z,14.05
2022-10-31T06:33:29.701Z,13.73
2022-10-31T06:38:34.219Z,14.90
2022-10-31T06:43:36.652Z,15.35
2022-10-31T06:49:01.546Z,15.93
2022-10-31T06:54:29.501Z,14.52
2022-10-31T06:59:31.762Z,15.15
2022-10-31T07:04:49.156Z,14.18
2022-10-31T07:09:53.238Z,15.35
2022-10-31T07:15:06.458Z,15.73
2022-10-31T07:20:09.356Z,15.75
2022-10-31T07:25:11.822Z,15.45
2022-10-31T07:30:32.263Z,15.33
2022-10-31T07:35:35.737Z,15.73
2022-10-31T07:40:38.405Z,14.85
2022-10-31T07:45:40.589Z,14.70
2022-10-31T07:51:01.383Z,17.27
2022-10-31T07:56:22.088Z,16.90
2022-10-31T08:01:24.279Z,16.63
2022-10-31T08:06:46.181Z,17.15
2022-10-31T08:12:03.713Z,16.95
2022-10-31T08:17:07.175Z,16.25
2022-10-31T08:22:18.494Z,15.57
2022-10-31T08:27:20.642Z,15.25
2022-10-31T08:32:23.557Z,14.95
2022-10-31T08:38:04.449Z,15.13
2022-10-31T08:43:17.407Z,15.25
2022-10-31T08:48:19.597Z,14.80
2022-10-31T08:53:23.519Z,13.85
2022-10-31T08:58:40.095Z,14.88
2022-10-31T09:03:43.069Z,14.27
2022-10-31T09:08:46.465Z,14.57
2022-10-31T09:13:48.496Z,15.05
2022-10-31T09:19:11.676Z,15.32
2022-10-31T09:24:13.960Z,16.92
2022-10-31T09:29:17.810Z,17.40
2022-10-31T09:34:20.890Z,16.85
2022-10-31T09:39:35.141Z,19.25
2022-10-31T09:45:11.210Z,18.85
2022-10-31T09:50:21.079Z,19.02
2022-10-31T09:55:35.987Z,18.45
2022-10-31T10:00:37.980Z,15.73
2022-10-31T10:05:51.733Z,19.23
2022-10-31T10:11:25.666Z,19.45
2022-10-31T10:17:11.776Z,19.52
2022-10-31T10:22:51.928Z,20.70
2022-10-31T10:28:30.712Z,20.65
2022-10-31T10:33:47.519Z,21.17
2022-10-31T10:38:59.276Z,21.58
2022-10-31T10:44:01.467Z,22.52
2022-10-31T10:49:20.450Z,21.40
2022-10-31T10:54:34.707Z,22.42
2022-10-31T10:59:36.766Z,22.77
2022-10-31T11:04:41.181Z,24.58
2022-10-31T11:09:43.266Z,25.58
2022-10-31T11:15:00.341Z,25.35
2022-10-31T11:20:24.679Z,25.65
2022-10-31T11:25:27.480Z,24.05
2022-10-31T11:30:30.662Z,25.27
2022-10-31T11:35:32.723Z,25.60
2022-10-31T11:40:34.753Z,23.05
2022-10-31T11:45:37.767Z,26.45
2022-10-31T11:50:42.500Z,24.10
2022-10-31T11:55:46.373Z,27.45
2022-10-31T12:00:54.183Z,26.75
2022-10-31T12:06:04.014Z,25.88
2022-10-31T12:11:38.374Z,25.98
2022-10-31T12:17:05.173Z,24.38
2022-10-31T12:22:11.784Z,25.90
2022-10-31T12:27:28.209Z,22.30
2022-10-31T12:32:39.748Z,24.60
2022-10-31T12:37:49.203Z,24.25
2022-10-31T12:43:14.359Z,24.67
2022-10-31T12:48:26.040Z,22.38
2022-10-31T12:54:01.048Z,25.02
2022-10-31T12:59:41.972Z,24.35
2022-10-31T13:04:57.705Z,21.70
2022-10-31T13:10:30.575Z,22.17
2022-10-31T13:15:42.050Z,22.50
2022-10-31T13:20:51.662Z,19.33
2022-10-31T13:25:59.724Z,20.67
2022-10-31T13:31:02.598Z,19.85
2022-10-31T13:36:29.267Z,19.00
2022-10-31T13:41:43.576Z,19.23
2022-10-31T13:46:45.916Z,20.23
2022-10-31T13:51:49.681Z,19.95
2022-10-31T13:56:52.811Z,19.38
2022-10-31T14:02:01.725Z,19.83
2022-10-31T14:07:14.835Z,18.92
2022-10-31T14:12:41.997Z,19.40
2022-10-31T14:17:50.831Z,19.80
2022-10-31T14:22:53.204Z,19.65
2022-10-31T14:27:55.574Z,18.48
2022-10-31T14:33:10.040Z,18.65
2022-10-31T14:38:23.222Z,16.88
2022-10-31T14:43:57.399Z,15.65
2022-10-31T14:49:17.346Z,16.08
2022-10-31T14:54:28.050Z,14.27
2022-10-31T14:59:33.674Z,13.98
2022-10-31T15:04:36.213Z,13.05
2022-10-31T15:09:38.872Z,12.65
2022-10-31T15:14:40.866Z,13.20
2022-10-31T15:19:43.617Z,13.88
2022-10-31T15:24:46.116Z,12.10
2022-10-31T15:29:50.483Z,10.18
2022-10-31T15:34:53.950Z,10.80
2022-10-31T15:39:55.927Z,10.32
2022-10-31T15:45:19.465Z,10.77
2022-10-31T15:50:45.927Z,10.85
2022-10-31T15:55:54.768Z,11.02
2022-10-31T16:01:02.880Z,10.73
2022-10-31T16:06:06.312Z,10.73
2022-10-31T16:11:08.421Z,10.25
2022-10-31T16:21:39.450Z,9.75
2022-10-31T16:26:41.753Z,9.82
2022-10-31T16:31:43.730Z,11.20
2022-10-31T16:36:46.056Z,11.07
2022-10-31T16:41:52.479Z,12.10
2022-10-31T16:47:14.428Z,11.65
2022-10-31T16:52:17.837Z,11.90
2022-10-31T16:57:27.245Z,11.32
2022-10-31T17:02:29.786Z,10.60
2022-10-31T17:07:31.875Z,11.52
2022-10-31T17:12:34.343Z,10.80
2022-10-31T17:17:36.467Z,10.23
2022-10-31T17:27:47.363Z,9.63
2022-10-31T17:32:50.509Z,10.38
2022-10-31T17:37:52.524Z,9.77
2022-10-31T17:42:56.870Z,9.35
2022-10-31T17:47:58.927Z,8.85
2022-10-31T17:53:01.855Z,8.93
2022-10-31T17:58:04.482Z,8.88
2022-10-31T18:03:07.026Z,9.38
2022-10-31T18:08:09.095Z,9.57
2022-10-31T18:13:11.134Z,9.52
2022-10-31T18:18:13.148Z,8.60
2022-10-31T18:23:15.202Z,8.82
2022-10-31T18:28:17.250Z,8.48
2022-10-31T18:33:19.660Z,8.70
2022-10-31T18:38:21.857Z,8.27
2022-10-31T18:43:23.837Z,8.70
2022-10-31T18:48:28.286Z,8.52
2022-10-31T18:53:30.961Z,7.28
2022-10-31T18:58:33.059Z,7.68
2022-10-31T19:03:35.684Z,7.65
2022-10-31T19:08:39.160Z,7.45
2022-10-31T19:13:43.244Z,8.18
2022-10-31T19:18:46.674Z,7.78
2022-10-31T19:23:49.010Z,8.48
2022-10-31T19:28:51.087Z,7.38
2022-10-31T19:33:53.204Z,8.13
2022-10-31T19:38:55.434Z,8.10
2022-10-31T19:43:59.836Z,7.90
2022-10-31T19:49:02.336Z,7.43
2022-10-31T19:54:05.381Z,8.90
2022-10-31T19:59:07.996Z,8.32
2022-10-31T20:04:10.543Z,7.88
2022-10-31T20:09:13.809Z,8.18
2022-10-31T20:14:17.648Z,8.00
2022-10-31T20:19:19.794Z,7.47
2022-10-31T20:24:22.183Z,8.10
2022-10-31T20:29:24.218Z,7.72
2022-10-31T20:34:26.206Z,7.68
2022-10-31T20:39:28.245Z,8.25
2022-10-31T20:44:30.653Z,7.55
2022-10-31T20:49:32.750Z,7.35
2022-10-31T20:54:34.704Z,7.90
2022-10-31T20:59:36.899Z,7.78
2022-10-31T21:04:39.063Z,8.05
2022-10-31T21:09:41.196Z,7.80
2022-10-31T21:14:43.265Z,7.28
2022-10-31T21:19:45.325Z,6.93
2022-10-31T21:24:47.346Z,7.28
2022-10-31T21:29:49.392Z,7.03
2022-10-31T21:34:51.460Z,7.20
2022-10-31T21:39:53.460Z,6.63
2022-10-31T21:44:55.551Z,6.95
2022-10-31T21:49:57.663Z,7.68
2022-10-31T21:54:59.676Z,7.10
2022-10-31T22:00:04.149Z,6.65
2022-10-31T22:05:07.321Z,5.80
2022-10-31T22:10:09.610Z,6.28
2022-10-31T22:15:11.588Z,5.68
2022-10-31T22:20:13.670Z,5.85
2022-10-31T22:25:15.693Z,6.82
2022-10-31T22:30:17.919Z,5.57
2022-10-31T22:35:19.991Z,6.35
2022-10-31T22:40:21.978Z,6.22
2022-10-31T22:45:24.162Z,6.95
2022-10-31T22:50:26.214Z,6.13
2022-10-31T22:55:28.291Z,7.35
2022-10-31T23:00:30.277Z,6.60
2022-10-31T23:05:32.435Z,7.05
2022-10-31T23:10:34.740Z,6.88
2022-10-31T23:15:37.708Z,7.40
2022-10-31T23:26:03.366Z,6.47
2022-10-31T23:31:05.326Z,6.30
2022-10-31T23:36:07.651Z,5.80
2022-10-31T23:41:09.786Z,7.00
2022-10-31T23:46:11.804Z,6.10
2022-10-31T23:51:14.710Z,5.97
2022-10-31T23:56:16.759Z,6.60
